Kezdőlap
METAR-TAF:

METAR-TAF

Repülőterek :

Lahr, Németország

földrajzi szélesség: 48-22-09N, földrajzi hosszúság: 007-49-40E, magasság: 156 m

Jelenlegi meteorológiai megfigyelések

A jelentés 27 perccel ezelõtt készült, 14:20 UTC
Északi szél 8 kt, észak-északnyugati és kelet-északkeleti között változik
Hőmérséklet 26°C
Páratartalom 61%
Légköri nyomás 1015 hPa
Látótávolság 10 km, vagy több
felhőtlen 1500 m magasságban, és nincs gomolyfelhõ

METAR: EDTL 191420Z 01008KT 330V060 CAVOK 26/18 Q1015

Idő: 16:47 (14:47 UTC)

Előrejelzés

A jelentés 47 perccel ezelõtt készült, 14:00 UTC
Az előrejelzés 19-én 15 óra UTC és 19-én 24 óra UTC között érvényes
Észak-északkeleti szél 9 kt
Látótávolság 10 km, vagy több
felhőtlen 1500 m magasságban, és nincs gomolyfelhõ
19-én 19 óra UTC és 19-én 21 óra UTC között fokozatosan kialakuló
Észak-északkeleti szél 4 kt

TAF: EDTL 191400Z 1915/1924 02009KT CAVOK BECMG 1919/1921 02004KT

Meteorológiai megfigyelések és előrejelzések több, mint 4000 repülőtéren (METAR és TAF jelentéseket).

A térképen piros és sárga pontok jelzik az elérhető meteorológiai állomásokat.

Mozgassa az egeret a pont fölött, hogy megjelenjen az állomás neve.

Azután kattintson az időjárási megfigyelések és előrejelzések megtekintéséhez.

A térkép megváltoztatása: kattintson a fekete keresztel jelölt zöld gombra ráközelítéshez, a vonallal jelölt zöld gombra távolításhoz, vagy a zöld nyilakra a szomszédos térképek eléréséhez.


METAR-TAF: